Richmond, MO

11:14 AM CDT on August 30, 2015 (GMT -0500)
Ray County Hospital | | Change Station
CLOSE
Current Station
Personal Weather Station
Location: Richmond, MO
Elevation: 827 ft
Nearby Weather Stations

Elev 827 ft 39.26 °N, 93.96 °W | Updated 4 seconds ago

Overcast
Overcast
94.8 °F
Feels Like 105 °F
N
0.0
Wind Variable Wind from NNE
Gusts 0.0 mph

Today
High -- | Low -- °F
--% Chance of Precip.
Yesterday
High -- | Low -- °F
Precip. -- in
6:42 AM 7:50 PM
Full, 99% visible
Pressure 30.07 in
Visibility 10.0 miles
Clouds Mostly Cloudy 1000 ft
Heat Index 105 °F
Dew Point 73 °F
Humidity 50%
Rainfall 0.00 in
Snow Depth Not available.
UV 4 out of 12
Pollen 9.60 out of 12
Air Quality Not available.
Flu Activity Not available.
METAR KGPH 301615Z AUTO 07003KT 10SM BKN010 23/21 A3007 RMK AO2
Pressure 30.07 in
Visibility 10.0 miles
Clouds Mostly Cloudy 1000 ft
Heat Index 105 °F
Dew Point 73 °F
Humidity 50%
Rainfall 0.00 in
Snow Depth Not available.
UV 4 out of 12
Pollen 9.60 out of 12
Air Quality Not available.
Flu Activity Not available.
METAR KGPH 301615Z AUTO 07003KT 10SM BKN010 23/21 A3007 RMK AO2

10-Day Weather Forecast

×

Almanac

Astronomy

Aug. 30, 2015 Rise Set
Actual Time
Civil Twilight
Nautical Twilight
Astronomical Twilight
Moon
Length of Visible Light
Length of Day
Tomorrow will be .
, % of the Moon is Illuminated

Today's Extremes

State Highs State Lows

Community

WunderPhotos

Upload Photos

1,851,003 photos uploaded!

WunderBlogs® & News

Nearby

Air Quality

  Air Quality AQ Index Pollutant
Not available.

Snow Depth

Station Depth Elevation

Earthquake Activity

City Distance Mag. Time & Date
Minimum magnitude displayed is 2.5.

Coastal Water Temperatures

Place Temperature

Stations

Nearby Weather Stations

Station Location Temp. Windchill Dew Point Humidity Wind Precip. Elev Updated Type